Time;durP1;ratioP1;P1;durP2;ratioP2;P2;SDS_P1;SDS_P2;PMS_P1;PMS_P2;Temp;Humidity;BMP_temperature;BMP_pressure;BME280_temperature;BME280_humidity;BME280_pressure;Samples;Min_cycle;Max_cycle;Signal;HPM_P1;HPM_P2
2022/01/08 00:01:29;;;;;;;3.13;1.92;;;;;;;18.54;41.52;102106.56;4231691;27;20095;-58
2022/01/08 00:03:30;;;;;;;11.02;2.40;;;;;;;18.57;43.18;102116.34;4227175;28;20035;-59
2022/01/08 00:05:31;;;;;;;14.02;3.40;;;;;;;18.60;43.81;102116.72;4231482;27;20096;-58
2022/01/08 00:07:33;;;;;;;7.28;2.70;;;;;;;18.61;43.40;102121.16;4227967;28;20040;-58
2022/01/08 00:09:34;;;;;;;8.18;2.50;;;;;;;18.61;42.54;102123.94;4238419;27;20039;-59
2022/01/08 00:11:36;;;;;;;5.15;2.53;;;;;;;18.61;42.55;102135.03;4234589;27;20036;-57
2022/01/08 00:13:40;;;;;;;6.65;2.05;;;;;;;18.58;42.67;102138.25;4233875;27;20047;-58
2022/01/08 00:15:42;;;;;;;10.35;2.97;;;;;;;18.59;43.41;102139.94;4240027;27;20047;-58
2022/01/08 00:17:43;;;;;;;34.28;4.65;;;;;;;18.59;45.48;102141.88;4235870;27;20080;-58
2022/01/08 00:19:45;;;;;;;18.15;2.92;;;;;;;18.60;45.98;102154.66;4229196;27;20385;-57
2022/01/08 00:21:46;;;;;;;24.92;3.25;;;;;;;18.59;47.01;102156.59;4221638;28;20474;-60
2022/01/08 00:23:47;;;;;;;17.30;2.95;;;;;;;18.61;47.37;102168.31;4224544;28;20035;-58
2022/01/08 00:25:49;;;;;;;11.13;3.30;;;;;;;18.61;46.43;102168.31;4229427;28;20028;-57
2022/01/08 00:27:53;;;;;;;14.63;2.50;;;;;;;18.62;45.94;102169.97;4229197;28;20552;-59
2022/01/08 00:29:55;;;;;;;10.50;2.47;;;;;;;18.63;45.81;102174.44;4229581;28;20093;-57
2022/01/08 00:31:56;;;;;;;10.10;2.03;;;;;;;18.64;45.22;102184.44;4227853;28;20440;-57
2022/01/08 00:33:57;;;;;;;9.20;3.15;;;;;;;18.66;45.62;102185.06;4230777;28;20456;-58
2022/01/08 00:36:01;;;;;;;8.50;2.58;;;;;;;18.63;44.73;102182.75;4233712;28;20055;-58
2022/01/08 00:38:05;;;;;;;9.85;2.10;;;;;;;18.67;44.48;102189.53;4235222;28;20116;-58
2022/01/08 00:40:09;;;;;;;4.60;2.22;;;;;;;18.69;44.65;102198.50;4241364;28;20115;-54
2022/01/08 00:42:10;;;;;;;7.18;2.25;;;;;;;18.75;45.01;102191.16;4242662;28;20474;-58
2022/01/08 00:44:16;;;;;;;6.07;1.98;;;;;;;18.79;44.64;102207.09;4236574;28;20043;-56
2022/01/08 00:46:17;;;;;;;;;;;;;;;18.81;44.20;102219.88;4234705;28;20067;-59
2022/01/08 00:48:18;;;;;;;8.90;2.10;;;;;;;18.86;44.31;102215.31;4232546;28;19915;-57
2022/01/08 00:50:21;;;;;;;6.78;1.85;;;;;;;18.97;44.03;102222.00;4234574;28;20032;-57
2022/01/08 00:52:26;;;;;;;3.10;1.92;;;;;;;18.95;43.71;102224.97;4229358;28;20483;-57
2022/01/08 00:54:27;;;;;;;6.45;2.13;;;;;;;18.99;44.00;102228.97;4226628;28;20093;-57
2022/01/08 00:56:29;;;;;;;8.10;2.15;;;;;;;19.02;43.36;102236.00;4231621;28;20036;-57
2022/01/08 00:58:30;;;;;;;6.80;1.98;;;;;;;19.04;43.51;102239.34;4217834;28;20107;-58
2022/01/08 01:00:31;;;;;;;5.63;1.77;;;;;;;19.07;43.61;102250.00;4215841;28;20036;-58
2022/01/08 01:02:33;;;;;;;5.68;2.20;;;;;;;19.05;43.21;102244.66;4213041;28;20048;-58
2022/01/08 01:04:35;;;;;;;5.15;2.40;;;;;;;19.10;43.40;102249.50;4216165;28;20069;-58
2022/01/08 01:06:39;;;;;;;5.65;1.48;;;;;;;19.11;43.36;102250.38;4216868;28;20031;-56
2022/01/08 01:08:40;;;;;;;4.30;1.80;;;;;;;19.13;43.27;102249.03;4222771;28;20380;-57
2022/01/08 01:10:42;;;;;;;2.72;1.85;;;;;;;19.14;43.03;102250.72;4228029;28;20382;-58
2022/01/08 01:12:44;;;;;;;5.40;1.65;;;;;;;19.12;42.50;102247.34;4220827;28;20027;-58
2022/01/08 01:14:45;;;;;;;4.13;1.40;;;;;;;19.10;42.23;102249.50;4226475;27;20043;-59
2022/01/08 01:16:47;;;;;;;4.35;1.48;;;;;;;19.09;42.29;102247.81;4233323;28;20039;-57
2022/01/08 01:18:48;;;;;;;6.82;1.92;;;;;;;19.09;42.54;102247.81;4214632;28;20121;-58
2022/01/08 01:20:50;;;;;;;4.65;2.03;;;;;;;19.05;42.35;102258.53;4230470;28;20040;-58
2022/01/08 01:23:01;;;;;;;;;;;;;;;;;;;;;
2022/01/08 01:25:03;;;;;;;3.53;1.77;;;;;;;19.08;42.42;102259.16;4219908;28;20027;-58
2022/01/08 01:29:46;;;;;;;3.10;1.80;;;;;;;19.03;41.50;102254.31;4216622;28;20484;-58
2022/01/08 01:47:36;;;;;;;4.65;1.67;;;;;;;19.06;41.81;102309.34;4233678;28;20815;-58
2022/01/08 01:49:40;;;;;;;2.90;1.45;;;;;;;19.05;41.56;102313.19;4233140;28;20027;-58
2022/01/08 01:51:42;;;;;;;3.50;1.60;;;;;;;19.02;41.85;102302.56;4233291;28;20031;-56
2022/01/08 01:53:43;;;;;;;3.13;1.30;;;;;;;19.02;41.37;102319.22;4231479;27;20586;-57
2022/01/08 01:55:51;;;;;;;4.03;1.42;;;;;;;18.96;41.31;102312.66;4216530;28;20088;-58
2022/01/08 01:57:53;;;;;;;3.42;1.38;;;;;;;18.97;41.56;102319.06;4241318;27;20048;-58
2022/01/08 01:59:54;;;;;;;2.40;1.50;;;;;;;18.91;41.50;102320.00;4216121;28;20063;-58
2022/01/08 02:01:56;;;;;;;2.92;1.60;;;;;;;18.90;40.78;102315.53;4215012;28;20051;-61
2022/01/08 02:03:58;;;;;;;3.03;1.30;;;;;;;18.90;41.01;102327.47;4216119;28;20028;-59
2022/01/08 02:05:59;;;;;;;2.25;1.48;;;;;;;18.87;41.75;102322.38;4224214;28;20176;-58
2022/01/08 02:08:03;;;;;;;2.65;1.67;;;;;;;18.90;41.77;102332.19;4231683;28;20035;-59
2022/01/08 02:10:06;;;;;;;2.00;1.40;;;;;;;18.89;41.51;102330.50;4231850;28;20043;-56
2022/01/08 02:12:17;;;;;;;3.03;1.20;;;;;;;18.91;41.58;102339.41;4232058;28;20039;-55
2022/01/08 02:14:18;;;;;;;2.05;1.40;;;;;;;18.89;41.86;102344.34;4231797;28;20371;-57
2022/01/08 02:16:19;;;;;;;2.17;1.30;;;;;;;18.85;41.40;102345.91;4232789;28;20028;-59
2022/01/08 02:18:25;;;;;;;3.30;1.45;;;;;;;18.85;41.78;102352.28;4231380;28;20409;-55
2022/01/08 02:20:30;;;;;;;2.97;1.33;;;;;;;18.84;41.89;102353.38;4231777;28;20101;-58
2022/01/08 02:22:31;;;;;;;3.92;1.75;;;;;;;18.83;41.79;102348.03;4231096;28;20077;-59
2022/01/08 02:24:35;;;;;;;3.30;1.40;;;;;;;18.82;41.77;102351.91;4232393;28;20081;-57
2022/01/08 02:26:36;;;;;;;2.33;1.52;;;;;;;18.84;41.63;102347.00;4229569;28;20097;-58
2022/01/08 02:28:39;;;;;;;2.17;1.20;;;;;;;18.81;42.15;102339.97;4230618;28;20096;-60
2022/01/08 02:30:44;;;;;;;2.67;1.23;;;;;;;18.87;41.76;102354.81;4231439;28;20104;-55
2022/01/08 02:32:46;;;;;;;2.08;1.02;;;;;;;18.82;42.19;102347.19;4231681;28;20036;-60
2022/01/08 02:34:48;;;;;;;1.25;0.98;;;;;;;18.89;41.88;102358.22;4232676;27;20376;-59
2022/01/08 02:36:49;;;;;;;2.30;1.33;;;;;;;18.89;41.98;102359.06;4232443;28;20437;-59
2022/01/08 02:38:51;;;;;;;2.78;1.45;;;;;;;18.86;42.14;102362.28;4231261;28;20199;-59
2022/01/08 02:41:02;;;;;;;2.38;1.48;;;;;;;18.89;41.96;102374.88;4231570;28;20044;-59
2022/01/08 02:43:04;;;;;;;4.07;1.17;;;;;;;18.88;41.80;102389.81;4231647;28;20040;-56
2022/01/08 02:45:07;;;;;;;1.40;1.00;;;;;;;18.88;42.06;102370.41;4231621;28;20159;-59
2022/01/08 02:47:08;;;;;;;3.17;1.48;;;;;;;18.88;41.83;102384.28;4230313;28;20084;-58
2022/01/08 02:49:09;;;;;;;2.15;1.10;;;;;;;18.88;41.92;102387.91;4231928;28;20506;-58
2022/01/08 02:51:11;;;;;;;3.95;1.50;;;;;;;18.86;42.02;102397.50;4231664;28;20100;-57
2022/01/08 02:53:13;;;;;;;2.90;1.42;;;;;;;18.82;42.25;102399.06;4229637;28;20108;-60
2022/01/08 02:55:17;;;;;;;3.72;1.00;;;;;;;18.87;42.20;102413.91;4231736;28;20044;-58
2022/01/08 02:57:19;;;;;;;1.50;1.10;;;;;;;18.85;41.90;102406.91;4218502;28;20495;-59
2022/01/08 02:59:20;;;;;;;2.30;1.17;;;;;;;18.87;42.41;102404.75;4225115;28;20043;-59
2022/01/08 03:01:24;;;;;;;1.90;1.15;;;;;;;18.79;42.09;102387.34;4231813;28;20154;-56
2022/01/08 03:03:26;;;;;;;2.53;1.20;;;;;;;18.86;42.30;102397.50;4231290;28;20039;-59
2022/01/08 03:05:28;;;;;;;2.08;1.30;;;;;;;18.83;42.08;102395.19;4231423;28;20088;-57
2022/01/08 03:07:29;;;;;;;5.20;1.30;;;;;;;18.82;42.31;102404.59;4222691;28;20032;-57
2022/01/08 03:09:40;;;;;;;2.30;1.45;;;;;;;18.81;42.22;102406.53;4213923;28;20114;-59
2022/01/08 03:11:43;;;;;;;3.50;1.20;;;;;;;18.82;42.46;102407.38;4214473;28;20040;-57
2022/01/08 03:13:45;;;;;;;2.58;1.38;;;;;;;18.79;41.77;102415.09;4214423;28;20048;-60
2022/01/08 03:15:46;;;;;;;1.70;1.05;;;;;;;18.78;42.15;102416.19;4230257;28;20105;-56
2022/01/08 03:17:48;;;;;;;1.45;1.08;;;;;;;18.77;42.13;102422.78;4230187;28;20048;-58
2022/01/08 03:19:54;;;;;;;1.35;0.98;;;;;;;18.77;42.41;102433.03;4229498;28;20551;-60
2022/01/08 03:21:57;;;;;;;2.17;1.10;;;;;;;18.66;42.05;102417.97;4230807;28;20039;-58
2022/01/08 03:24:01;;;;;;;2.97;1.83;;;;;;;18.75;42.41;102441.59;4234308;27;20155;-59
2022/01/08 03:26:03;;;;;;;3.60;1.55;;;;;;;18.74;42.36;102431.56;4240035;27;20023;-58
2022/01/08 03:28:04;;;;;;;1.55;1.13;;;;;;;18.73;42.19;102434.56;4248505;27;20065;-58
2022/01/08 03:30:11;;;;;;;3.03;0.80;;;;;;;18.72;42.26;102439.25;4247023;27;20364;-58
2022/01/08 03:32:12;;;;;;;2.08;1.20;;;;;;;18.71;42.28;102439.50;4231701;27;20043;-59
2022/01/08 03:34:14;;;;;;;2.25;1.10;;;;;;;18.69;42.40;102459.16;4220406;28;20380;-59
2022/01/08 03:36:18;;;;;;;2.35;1.35;;;;;;;18.66;42.13;102459.56;4214094;28;20073;-54
2022/01/08 03:38:20;;;;;;;3.13;1.40;;;;;;;18.65;42.47;102457.03;4213776;28;20073;-60
2022/01/08 03:40:21;;;;;;;1.98;1.20;;;;;;;18.61;42.11;102451.09;4212471;28;20086;-56
2022/01/08 03:42:23;;;;;;;2.00;1.00;;;;;;;18.62;42.23;102463.88;4231460;27;20088;-57
2022/01/08 03:44:25;;;;;;;3.00;1.20;;;;;;;18.61;42.21;102469.66;4246464;27;20031;-58
2022/01/08 03:46:28;;;;;;;1.67;0.90;;;;;;;18.57;42.33;102472.03;4247280;27;20031;-60
2022/01/08 03:48:43;;;;;;;2.13;1.20;;;;;;;18.56;41.98;102459.25;4214334;28;20380;-53
2022/01/08 03:50:46;;;;;;;1.67;1.00;;;;;;;18.56;42.12;102462.03;4217505;28;20047;-60
2022/01/08 03:52:47;;;;;;;1.65;1.10;;;;;;;18.57;42.06;102466.47;4228557;28;20295;-57
2022/01/08 03:54:49;;;;;;;1.33;1.10;;;;;;;18.56;42.08;102470.34;4230310;28;20369;-57
2022/01/08 03:56:50;;;;;;;3.22;1.38;;;;;;;18.51;42.29;102470.19;4230446;28;20132;-57
2022/01/08 03:58:52;;;;;;;1.40;1.20;;;;;;;18.53;42.16;102479.94;4229791;28;20032;-59
2022/01/08 04:00:54;;;;;;;1.60;1.00;;;;;;;18.51;41.88;102489.59;4230503;28;20048;-59
2022/01/08 04:02:56;;;;;;;2.90;1.20;;;;;;;18.49;42.04;102487.00;4230546;28;20108;-57
2022/01/08 04:04:57;;;;;;;2.67;1.40;;;;;;;18.48;42.06;102495.56;4229267;28;20145;-59
2022/01/08 04:06:58;;;;;;;1.75;0.90;;;;;;;18.48;42.21;102495.56;4229878;28;20482;-57
2022/01/08 04:09:00;;;;;;;1.15;0.90;;;;;;;18.47;42.34;102496.66;4216234;28;20039;-58
2022/01/08 04:11:02;;;;;;;4.47;1.25;;;;;;;18.47;42.44;102499.44;4214376;28;20036;-54
2022/01/08 04:13:10;;;;;;;1.30;1.02;;;;;;;18.45;41.91;102504.31;4213739;28;20079;-58
2022/01/08 04:17:27;;;;;;;1.00;0.90;;;;;;;18.41;42.25;102506.69;4214413;28;20024;-57
2022/01/08 04:19:29;;;;;;;2.30;0.90;;;;;;;18.41;42.17;102500.31;4213635;28;20108;-58
2022/01/08 04:23:35;;;;;;;3.08;1.00;;;;;;;18.39;41.97;102505.25;4231515;28;20086;-60
2022/01/08 04:25:39;;;;;;;1.25;0.98;;;;;;;18.37;41.93;102511.03;4230369;28;20516;-59
2022/01/08 04:27:41;;;;;;;1.25;1.05;;;;;;;18.35;42.14;102510.38;4230631;28;20088;-60
2022/01/08 04:29:42;;;;;;;1.25;1.00;;;;;;;18.35;42.14;102515.09;4230853;28;20471;-58
2022/01/08 04:31:44;;;;;;;1.30;0.95;;;;;;;18.32;42.24;102507.22;4229920;27;20011;-59
2022/01/08 04:33:45;;;;;;;1.05;0.90;;;;;;;18.34;41.93;102516.16;4229787;28;20113;-62
2022/01/08 04:35:46;;;;;;;2.72;1.10;;;;;;;18.31;42.29;102511.06;4231330;28;20054;-58
2022/01/08 04:37:48;;;;;;;1.60;0.93;;;;;;;18.33;42.25;102520.00;4233256;27;20076;-54
2022/01/08 04:39:49;;;;;;;3.67;1.08;;;;;;;18.33;42.35;102525.56;4242998;27;20069;-55
2022/01/08 04:41:50;;;;;;;1.88;0.73;;;;;;;18.33;42.21;102525.56;4237847;27;20043;-57
2022/01/08 04:43:52;;;;;;;1.63;0.90;;;;;;;18.32;42.25;102526.59;4241380;27;20083;-56
2022/01/08 04:45:54;;;;;;;1.80;0.80;;;;;;;18.31;41.90;102541.53;4238525;27;20048;-57
2022/01/08 04:47:58;;;;;;;1.38;0.85;;;;;;;18.27;42.15;102544.75;4236604;27;20464;-57
2022/01/08 04:50:00;;;;;;;1.60;1.10;;;;;;;18.27;42.03;102550.28;4235590;27;20043;-60
2022/01/08 04:52:04;;;;;;;2.03;0.90;;;;;;;18.24;41.98;102553.53;4238825;27;20896;-55
2022/01/08 04:54:06;;;;;;;4.28;1.20;;;;;;;18.21;41.80;102545.66;4240496;27;20047;-58
2022/01/08 04:56:07;;;;;;;2.42;1.73;;;;;;;18.31;41.42;102555.41;4247884;27;20166;-54
2022/01/08 04:58:12;;;;;;;4.35;2.70;;;;;;;18.31;41.04;102555.41;4244574;27;20388;-54
2022/01/08 05:00:16;;;;;;;5.28;3.35;;;;;;;18.31;40.68;102558.16;4238143;27;20044;-54
2022/01/08 05:02:18;;;;;;;5.18;3.25;;;;;;;18.31;40.37;102561.78;4242842;27;20092;-54
2022/01/08 05:04:20;;;;;;;5.35;3.83;;;;;;;18.35;40.08;102562.19;4240775;27;20517;-59
2022/01/08 05:06:22;;;;;;;5.68;3.70;;;;;;;18.36;40.18;102569.44;4247138;27;20043;-55
2022/01/08 05:08:23;;;;;;;4.68;3.47;;;;;;;18.39;39.84;102569.00;4235868;27;20112;-54
2022/01/08 05:10:25;;;;;;;5.95;4.38;;;;;;;18.40;39.74;102565.13;4246710;27;20027;-55
2022/01/08 05:12:26;;;;;;;7.20;4.30;;;;;;;18.43;39.67;102561.94;4237195;27;20043;-56
2022/01/08 05:14:28;;;;;;;10.50;5.05;;;;;;;18.48;39.62;102567.66;4244144;27;20039;-56
2022/01/08 05:16:30;;;;;;;8.65;4.53;;;;;;;18.50;39.46;102576.56;4246217;27;20035;-57
2022/01/08 05:18:33;;;;;;;8.38;4.45;;;;;;;18.55;39.45;102571.19;4244984;27;20092;-54
2022/01/08 05:20:37;;;;;;;7.20;4.88;;;;;;;18.57;39.57;102565.44;4241517;27;20044;-56
2022/01/08 05:22:52;;;;;;;7.70;5.28;;;;;;;18.60;39.32;102576.94;4245797;27;20085;-54
2022/01/08 05:24:54;;;;;;;7.50;4.07;;;;;;;18.64;39.52;102567.06;4215513;27;20092;-57
2022/01/08 05:26:55;;;;;;;8.18;4.65;;;;;;;18.69;39.66;102564.53;4239966;27;20285;-56
2022/01/08 05:28:57;;;;;;;7.53;4.57;;;;;;;18.72;39.03;102557.66;4235570;27;20093;-56
2022/01/08 05:30:58;;;;;;;8.93;4.40;;;;;;;18.72;39.24;102558.50;4242658;27;20466;-55
2022/01/08 05:33:00;;;;;;;9.27;4.53;;;;;;;18.74;39.18;102561.06;4234757;27;20107;-53
2022/01/08 05:35:01;;;;;;;7.57;4.10;;;;;;;18.71;39.16;102551.25;4234361;27;20035;-55
2022/01/08 05:37:05;;;;;;;7.95;3.95;;;;;;;18.77;38.99;102566.97;4234330;27;20436;-55
2022/01/08 05:39:07;;;;;;;6.30;4.28;;;;;;;18.77;39.16;102572.53;4236613;27;20043;-56
2022/01/08 05:41:12;;;;;;;7.68;4.30;;;;;;;18.79;39.11;102581.50;4252440;27;20076;-56
2022/01/08 05:43:14;;;;;;;8.45;4.00;;;;;;;18.81;38.90;102578.47;4237572;27;20031;-57
2022/01/08 05:45:16;;;;;;;6.55;4.07;;;;;;;18.82;38.92;102585.72;4235018;27;20043;-55
2022/01/08 05:47:20;;;;;;;6.28;3.83;;;;;;;18.85;39.11;102584.44;4251055;27;20455;-56
2022/01/08 05:49:21;;;;;;;8.57;3.53;;;;;;;18.87;38.74;102604.44;4237831;27;20044;-54
2022/01/08 05:51:23;;;;;;;5.53;3.67;;;;;;;18.87;38.96;102604.44;4226602;27;20552;-57
2022/01/08 05:53:24;;;;;;;6.80;3.72;;;;;;;18.88;38.99;102606.19;4228828;27;20112;-58
2022/01/08 05:55:26;;;;;;;10.30;3.88;;;;;;;18.88;38.58;102611.72;4239252;27;20432;-56
2022/01/08 05:57:27;;;;;;;6.55;3.40;;;;;;;18.87;38.84;102613.63;4241073;27;20397;-57
2022/01/08 05:59:28;;;;;;;6.00;3.28;;;;;;;18.88;38.81;102611.72;4241892;27;20043;-55
2022/01/08 06:01:33;;;;;;;6.88;3.28;;;;;;;18.87;38.86;102615.53;4231923;27;20089;-56
2022/01/08 06:03:34;;;;;;;7.13;3.60;;;;;;;18.89;38.89;102610.63;4243661;27;20107;-54
2022/01/08 06:05:35;;;;;;;8.90;3.55;;;;;;;18.86;39.10;102619.41;4247131;27;20445;-54
2022/01/08 06:07:37;;;;;;;4.63;3.13;;;;;;;18.90;38.72;102631.75;4234283;27;20039;-57
2022/01/08 06:09:38;;;;;;;4.53;3.13;;;;;;;18.91;38.97;102639.00;4231820;27;20096;-57
2022/01/08 06:11:40;;;;;;;6.03;3.10;;;;;;;18.90;38.93;102649.25;4231603;28;20077;-54
2022/01/08 06:13:41;;;;;;;4.78;2.88;;;;;;;18.90;38.96;102648.38;4234275;27;20116;-53
2022/01/08 06:15:42;;;;;;;4.97;3.03;;;;;;;18.90;38.77;102651.16;4237024;27;20031;-55
2022/01/08 06:17:44;;;;;;;7.55;3.20;;;;;;;18.89;38.60;102655.03;4231389;27;20489;-56
2022/01/08 06:19:45;;;;;;;7.85;3.00;;;;;;;18.86;38.91;102652.69;4239030;27;20096;-54
2022/01/08 06:21:47;;;;;;;5.38;2.92;;;;;;;18.89;39.01;102674.44;4238619;27;20039;-54
2022/01/08 06:23:48;;;;;;;3.85;3.13;;;;;;;18.90;38.78;102670.59;4232604;27;20039;-54
2022/01/08 06:25:49;;;;;;;4.80;3.00;;;;;;;18.90;38.78;102676.13;4230035;27;20104;-53
2022/01/08 06:27:54;;;;;;;5.53;2.88;;;;;;;18.90;38.70;102676.13;4238412;27;20027;-58
2022/01/08 06:29:55;;;;;;;9.63;2.88;;;;;;;18.88;38.91;102683.84;4224853;27;20486;-57
2022/01/08 06:31:59;;;;;;;5.70;2.88;;;;;;;18.90;39.04;102687.22;4243678;27;20064;-55
2022/01/08 06:34:01;;;;;;;6.63;2.17;;;;;;;18.89;38.57;102691.09;4244877;27;20055;-58
2022/01/08 06:36:02;;;;;;;5.10;3.00;;;;;;;18.90;38.63;102699.16;4236020;27;20104;-57
2022/01/08 06:38:04;;;;;;;4.35;2.80;;;;;;;18.91;38.80;102694.47;4246329;27;20043;-56
2022/01/08 06:40:06;;;;;;;5.35;2.85;;;;;;;18.91;38.91;102694.47;4233969;27;20023;-57
2022/01/08 06:42:10;;;;;;;4.85;2.42;;;;;;;18.89;38.62;102702.19;4235825;27;20081;-59
2022/01/08 06:44:12;;;;;;;6.82;2.80;;;;;;;18.89;38.86;102707.72;4235534;27;20097;-55
2022/01/08 06:46:14;;;;;;;5.53;2.40;;;;;;;18.89;38.97;102718.81;4233090;27;20023;-55
2022/01/08 06:48:15;;;;;;;5.85;2.70;;;;;;;18.87;38.56;102721.81;4237665;27;20031;-56
2022/01/08 06:50:17;;;;;;;4.72;2.20;;;;;;;18.87;38.99;102730.13;4232139;27;20036;-54
2022/01/08 06:52:18;;;;;;;4.72;2.40;;;;;;;18.88;38.78;102728.22;4230601;27;20096;-56
2022/01/08 06:54:20;;;;;;;6.32;2.53;;;;;;;18.86;38.59;102735.91;4230614;28;20476;-57
2022/01/08 06:56:21;;;;;;;4.75;2.47;;;;;;;18.83;39.16;102739.13;4231097;28;20112;-55
2022/01/08 06:58:25;;;;;;;4.10;2.03;;;;;;;18.83;39.36;102751.09;4230516;28;20081;-56
2022/01/08 07:00:26;;;;;;;4.03;2.30;;;;;;;18.85;39.33;102753.63;4222695;28;20019;-56
2022/01/08 07:02:28;;;;;;;10.13;2.08;;;;;;;18.84;39.34;102768.56;4228515;28;20031;-57
2022/01/08 07:04:29;;;;;;;4.00;2.20;;;;;;;18.83;39.21;102758.53;4230574;28;20104;-53
2022/01/08 07:06:31;;;;;;;5.10;2.40;;;;;;;18.83;39.43;102764.06;4243152;27;20500;-56
2022/01/08 07:08:32;;;;;;;3.42;2.22;;;;;;;18.82;39.65;102756.84;4245662;27;20104;-57
2022/01/08 07:10:34;;;;;;;8.27;2.53;;;;;;;18.79;39.57;102759.00;4247223;27;20043;-58
2022/01/08 07:12:35;;;;;;;3.30;1.90;;;;;;;18.81;39.82;102769.00;4248060;27;20340;-58
2022/01/08 07:14:37;;;;;;;7.32;2.17;;;;;;;18.76;39.88;102770.53;4247896;27;20039;-57
2022/01/08 07:16:38;;;;;;;4.10;1.90;;;;;;;18.79;39.76;102781.19;4248920;27;20043;-55
2022/01/08 07:18:40;;;;;;;5.57;2.20;;;;;;;18.75;39.81;102787.41;4247836;27;20039;-58
2022/01/08 07:20:44;;;;;;;4.03;2.08;;;;;;;18.78;39.92;102798.03;4248019;27;20809;-54
2022/01/08 07:22:45;;;;;;;9.80;1.45;;;;;;;18.78;40.35;102796.13;4248320;27;20043;-59
2022/01/08 07:24:47;;;;;;;5.85;1.60;;;;;;;18.77;40.01;102794.41;4248074;27;20084;-58
2022/01/08 07:26:48;;;;;;;3.33;1.85;;;;;;;18.75;40.42;102795.72;4248014;27;20035;-57
2022/01/08 07:28:49;;;;;;;11.27;2.72;;;;;;;18.75;40.37;102809.59;4234575;27;20416;-54
2022/01/08 07:30:51;;;;;;;11.30;2.30;;;;;;;18.72;40.54;102808.09;4228623;28;20543;-54
2022/01/08 07:32:53;;;;;;;16.30;2.22;;;;;;;18.69;40.77;102814.09;4231039;28;20132;-53
2022/01/08 07:34:54;;;;;;;16.33;2.38;;;;;;;18.63;41.37;102826.03;4230390;28;20445;-56
2022/01/08 07:36:55;;;;;;;9.50;2.42;;;;;;;18.61;41.80;102828.19;4218021;28;20048;-56
2022/01/08 07:38:57;;;;;;;10.00;2.30;;;;;;;18.59;42.12;102830.31;4214350;28;20044;-56
2022/01/08 07:40:58;;;;;;;10.75;2.05;;;;;;;18.58;42.30;102824.97;4229165;28;20224;-55
2022/01/08 07:42:59;;;;;;;10.32;1.95;;;;;;;18.59;42.39;102838.63;4231568;28;20084;-55
2022/01/08 07:45:01;;;;;;;15.23;2.70;;;;;;;18.55;42.40;102829.03;4231650;28;20020;-52
2022/01/08 07:47:08;;;;;;;8.55;2.25;;;;;;;18.59;42.74;102840.53;4230885;28;20043;-53
2022/01/08 07:49:09;;;;;;;7.07;2.38;;;;;;;18.55;42.64;102831.81;4228608;28;20043;-57
2022/01/08 07:51:11;;;;;;;7.93;2.03;;;;;;;18.54;42.87;102832.88;4232417;27;20100;-55
2022/01/08 07:53:12;;;;;;;8.80;2.08;;;;;;;18.57;42.80;102835.22;4229624;28;20101;-57
2022/01/08 07:55:14;;;;;;;10.15;1.67;;;;;;;18.60;43.13;102840.34;4230290;28;20088;-53
2022/01/08 07:57:16;;;;;;;14.05;2.35;;;;;;;18.58;42.87;102845.25;4230390;28;20085;-57
2022/01/08 07:59:17;;;;;;;7.40;2.20;;;;;;;18.58;42.98;102849.94;4229643;28;20462;-56
2022/01/08 08:01:18;;;;;;;5.72;1.95;;;;;;;18.57;43.48;102856.56;4230130;28;20043;-57
2022/01/08 08:03:21;;;;;;;8.15;1.77;;;;;;;18.56;43.60;102861.25;4230292;28;20032;-55
2022/01/08 08:05:22;;;;;;;11.55;2.20;;;;;;;18.54;43.31;102875.31;4229725;28;20069;-55
2022/01/08 08:07:36;;;;;;;6.55;1.70;;;;;;;18.52;43.72;102876.63;4214379;28;20540;-52
2022/01/08 08:09:38;;;;;;;6.05;1.75;;;;;;;18.51;43.96;102888.78;4212972;28;20040;-56
2022/01/08 08:11:39;;;;;;;7.40;2.00;;;;;;;18.51;43.96;102900.72;4213234;28;20036;-54
2022/01/08 08:13:41;;;;;;;6.50;1.38;;;;;;;18.51;43.76;102899.88;4222706;28;20035;-55
2022/01/08 08:15:48;;;;;;;7.60;1.85;;;;;;;18.51;44.03;102902.66;4230219;28;20077;-56
2022/01/08 08:17:50;;;;;;;6.43;1.80;;;;;;;18.48;44.30;102905.84;4229235;28;20043;-56
2022/01/08 08:19:51;;;;;;;4.75;1.83;;;;;;;18.47;44.25;102901.38;4230438;28;20155;-56
2022/01/08 08:21:52;;;;;;;5.95;2.00;;;;;;;18.47;44.27;102895.84;4230485;28;20043;-55
2022/01/08 08:23:54;;;;;;;7.38;1.67;;;;;;;18.46;44.55;102899.66;4231013;28;20020;-54
2022/01/08 08:25:55;;;;;;;2.28;1.88;;;;;;;18.47;44.50;102912.47;4229487;28;20091;-54
2022/01/08 08:27:57;;;;;;;5.53;1.80;;;;;;;18.48;44.62;102908.63;4227476;28;20047;-55
2022/01/08 08:29:58;;;;;;;5.22;1.60;;;;;;;18.44;44.57;102910.13;4229801;28;20101;-55
2022/01/08 08:32:00;;;;;;;4.80;1.50;;;;;;;18.46;44.40;102919.06;4224636;28;20051;-55
2022/01/08 08:34:01;;;;;;;3.97;1.67;;;;;;;18.46;44.45;102930.16;4229553;28;20639;-53
2022/01/08 08:36:02;;;;;;;5.18;1.60;;;;;;;18.42;44.64;102926.97;4229001;28;20105;-56
2022/01/08 08:38:04;;;;;;;6.05;1.98;;;;;;;18.37;45.04;102926.78;4230233;28;20032;-54
2022/01/08 08:40:07;;;;;;;3.42;1.27;;;;;;;18.37;45.10;102934.22;4230158;28;20428;-57
2022/01/08 08:42:08;;;;;;;3.65;1.50;;;;;;;18.38;45.02;102927.63;4228863;28;20043;-56
2022/01/08 08:44:10;;;;;;;4.15;1.85;;;;;;;18.38;45.27;102933.16;4226623;28;20043;-58
2022/01/08 08:46:11;;;;;;;3.65;1.23;;;;;;;18.37;45.10;102936.97;4214172;28;20020;-57
2022/01/08 08:48:13;;;;;;;4.57;1.63;;;;;;;18.37;45.07;102936.97;4227194;28;20048;-54
2022/01/08 08:50:16;;;;;;;2.25;1.80;;;;;;;18.35;45.46;102947.44;4218806;28;20040;-53
2022/01/08 08:52:17;;;;;;;3.83;1.42;;;;;;;18.34;44.95;102948.53;4221081;28;20420;-57
2022/01/08 08:54:18;;;;;;;4.22;1.40;;;;;;;18.35;45.57;102955.75;4229328;28;20048;-55
2022/01/08 08:56:21;;;;;;;5.07;1.52;;;;;;;18.36;45.69;102957.47;4224063;28;20460;-57
2022/01/08 08:58:22;;;;;;;5.00;1.48;;;;;;;18.33;45.20;102960.69;4229671;28;20381;-55
2022/01/08 09:00:25;;;;;;;3.38;1.33;;;;;;;18.28;45.77;102967.72;4230093;28;20048;-57
2022/01/08 09:02:26;;;;;;;6.05;1.65;;;;;;;18.31;45.39;102971.97;4228384;28;20043;-53
2022/01/08 09:04:30;;;;;;;6.60;1.55;;;;;;;18.31;45.76;102968.34;4230018;28;20112;-55
2022/01/08 09:06:35;;;;;;;2.90;1.30;;;;;;;18.26;45.74;102969.84;4225062;28;20040;-56
2022/01/08 09:08:39;;;;;;;3.90;1.25;;;;;;;18.31;45.48;102977.50;4224357;28;20113;-56
2022/01/08 09:10:40;;;;;;;2.50;1.10;;;;;;;18.29;45.97;102983.28;4229769;28;20096;-55
2022/01/08 09:12:42;;;;;;;3.70;1.52;;;;;;;18.24;46.06;102974.75;4229955;28;20036;-56
2022/01/08 09:14:44;;;;;;;5.72;1.40;;;;;;;18.22;46.35;102993.50;4229114;28;20081;-54
2022/01/08 09:16:57;;;;;;;5.10;1.50;;;;;;;18.19;46.29;102990.28;4229789;28;20097;-55
2022/01/08 09:18:59;;;;;;;1.90;1.30;;;;;;;18.19;46.28;102999.47;4230126;28;20551;-55
2022/01/08 09:21:00;;;;;;;3.05;1.60;;;;;;;18.20;46.85;103019.72;4230436;28;20084;-52
2022/01/08 09:23:02;;;;;;;4.38;1.20;;;;;;;18.22;46.64;103029.53;4226857;28;20058;-52
2022/01/08 09:25:05;;;;;;;2.03;1.27;;;;;;;18.24;46.71;103040.41;4217315;28;20176;-55
2022/01/08 09:27:06;;;;;;;2.97;1.65;;;;;;;18.25;47.13;103045.75;4233846;28;20016;-53
2022/01/08 09:29:08;;;;;;;2.10;1.20;;;;;;;18.25;47.13;103040.19;4232510;28;20043;-52
2022/01/08 09:31:12;;;;;;;4.07;1.40;;;;;;;18.27;46.93;103054.69;4231760;28;20039;-52
2022/01/08 09:33:13;;;;;;;2.97;1.10;;;;;;;18.31;46.77;103054.25;4231518;28;20051;-53
2022/01/08 09:35:16;;;;;;;1.52;1.10;;;;;;;18.37;47.22;103053.41;4233539;28;20043;-54
2022/01/08 09:37:18;;;;;;;3.45;1.38;;;;;;;18.43;47.23;103055.34;4232568;28;20093;-53
2022/01/08 09:39:19;;;;;;;4.13;1.17;;;;;;;18.48;47.14;103050.00;4233703;28;20035;-51
2022/01/08 09:41:21;;;;;;;2.75;0.98;;;;;;;18.53;46.81;103053.00;4233424;28;20089;-53
2022/01/08 09:43:23;;;;;;;1.20;1.00;;;;;;;18.57;47.05;103053.44;4233488;28;20031;-51
2022/01/08 09:45:24;;;;;;;3.38;1.20;;;;;;;18.66;46.97;103074.31;4233467;28;20035;-49
2022/01/08 09:47:25;;;;;;;3.38;1.10;;;;;;;18.72;46.85;103077.09;4231814;28;20565;-54
2022/01/08 09:49:27;;;;;;;2.13;1.15;;;;;;;18.78;46.63;103084.59;4231265;28;20108;-56
2022/01/08 09:51:31;;;;;;;1.92;0.98;;;;;;;18.85;46.37;103083.72;4225031;28;20040;-50
2022/01/08 09:53:32;;;;;;;3.45;0.93;;;;;;;18.88;46.43;103089.69;4232354;28;20036;-55